createdAt,value
2018-06-11T00:00:49.987Z,97999.67
2018-06-11T00:03:02.371Z,97995.52
2018-06-11T00:05:14.813Z,97995.83
2018-06-11T00:07:27.162Z,97995.31
2018-06-11T00:09:39.723Z,97985.57
2018-06-11T00:11:52.193Z,97982.05
2018-06-11T00:14:04.793Z,97981.53
2018-06-11T00:16:17.240Z,97978.84
2018-06-11T00:18:29.594Z,97978.02
2018-06-11T00:20:42.070Z,97978.81
2018-06-11T00:22:54.481Z,97967.92
2018-06-11T00:25:06.842Z,97974.02
2018-06-11T00:27:19.221Z,97968.55
2018-06-11T00:29:31.681Z,97967.23
2018-06-11T00:31:44.034Z,97962.57
2018-06-11T00:33:56.370Z,97963.09
2018-06-11T00:36:08.758Z,97962.76
2018-06-11T00:38:21.133Z,97955.33
2018-06-11T00:40:36.617Z,97960.58
2018-06-11T00:42:49.051Z,97954.45
2018-06-11T00:45:01.516Z,97954.28
2018-06-11T00:47:13.962Z,97952.59
2018-06-11T00:49:26.346Z,97951.39
2018-06-11T00:51:38.725Z,97946.97
2018-06-11T00:53:51.091Z,97947.62
2018-06-11T00:56:07.177Z,97944.14
2018-06-11T00:58:19.736Z,97938.47
2018-06-11T01:00:32.165Z,97938.13
2018-06-11T01:02:44.518Z,97930.24
2018-06-11T01:04:56.898Z,97926.74
2018-06-11T01:07:09.310Z,97920.76
2018-06-11T01:09:21.738Z,97921.94
2018-06-11T01:11:34.187Z,97916.34
2018-06-11T01:13:46.546Z,97922.88
2018-06-11T01:15:58.987Z,97917.44
2018-06-11T01:18:11.416Z,97921.89
2018-06-11T01:20:23.804Z,97921.75
2018-06-11T01:22:36.147Z,97923.04
2018-06-11T01:24:48.603Z,97919.53
2018-06-11T01:27:01.078Z,97911.11
2018-06-11T01:29:13.763Z,97909.63
2018-06-11T01:31:26.210Z,97898.94
2018-06-11T01:33:38.574Z,97901.27
2018-06-11T01:35:50.967Z,97899.29
2018-06-11T01:38:03.345Z,97895.67
2018-06-11T01:40:15.960Z,97896.41
2018-06-11T01:42:28.344Z,97887.02
2018-06-11T01:44:40.759Z,97886.02
2018-06-11T01:46:53.164Z,97880.78
2018-06-11T01:49:05.589Z,97885.88
2018-06-11T01:51:18.031Z,97885.42
2018-06-11T01:53:30.467Z,97887.20
2018-06-11T01:55:42.951Z,97881.61
2018-06-11T01:57:55.343Z,97884.11
2018-06-11T02:00:07.793Z,97877.69
2018-06-11T02:02:20.299Z,97876.86
2018-06-11T02:04:32.685Z,97874.91
2018-06-11T02:06:45.143Z,97873.41
2018-06-11T02:08:57.530Z,97876.53
2018-06-11T02:11:09.965Z,97873.22
2018-06-11T02:13:22.382Z,97877.19
2018-06-11T02:15:34.782Z,97867.97
2018-06-11T02:17:47.155Z,97873.59
2018-06-11T02:19:59.559Z,97876.23
2018-06-11T02:22:12.083Z,97880.02
2018-06-11T02:24:24.493Z,97879.69
2018-06-11T02:26:36.902Z,97885.14
2018-06-11T02:28:49.297Z,97883.96
2018-06-11T02:31:01.774Z,97885.28
2018-06-11T02:33:14.188Z,97888.22
2018-06-11T02:35:26.606Z,97884.13
2018-06-11T02:37:39.044Z,97884.13
2018-06-11T02:39:51.409Z,97887.56
2018-06-11T02:42:03.979Z,97885.36
2018-06-11T02:44:16.467Z,97888.80
2018-06-11T02:46:28.827Z,97884.33
2018-06-11T02:48:41.308Z,97884.80
2018-06-11T02:50:53.667Z,97892.66
2018-06-11T02:53:06.265Z,97891.52
2018-06-11T02:55:18.631Z,97894.50
2018-06-11T02:57:31.110Z,97900.17
2018-06-11T02:59:43.558Z,97902.75
2018-06-11T03:01:55.939Z,97902.92
2018-06-11T03:04:08.393Z,97900.48
2018-06-11T03:06:20.801Z,97898.17
2018-06-11T03:08:33.206Z,97893.70
2018-06-11T03:10:45.583Z,97888.25
2018-06-11T03:12:58.044Z,97894.77
2018-06-11T03:15:10.393Z,97888.11
2018-06-11T03:17:22.985Z,97892.48
2018-06-11T03:19:35.399Z,97888.30
2018-06-11T03:21:47.747Z,97892.22
2018-06-11T03:24:00.090Z,97887.78
2018-06-11T03:26:12.542Z,97885.31
2018-06-11T03:28:24.950Z,97884.00
2018-06-11T03:30:37.362Z,97881.37
2018-06-11T03:32:49.733Z,97882.72
2018-06-11T03:35:02.179Z,97883.73
2018-06-11T03:37:14.662Z,97876.66
2018-06-11T03:39:27.056Z,97875.68
2018-06-11T03:41:39.430Z,97884.42
2018-06-11T03:43:51.955Z,97888.83
2018-06-11T03:46:04.443Z,97894.29
2018-06-11T03:48:16.924Z,97896.33
2018-06-11T03:50:29.373Z,97895.53
2018-06-11T03:52:41.835Z,97882.21
2018-06-11T03:54:54.253Z,97883.00
2018-06-11T03:57:06.750Z,97881.98
2018-06-11T03:59:19.115Z,97884.59
2018-06-11T04:01:31.547Z,97883.47
2018-06-11T04:03:43.946Z,97889.23
2018-06-11T04:05:56.369Z,97881.20
2018-06-11T04:08:08.758Z,97875.99
2018-06-11T04:10:21.158Z,97874.77
2018-06-11T04:12:33.637Z,97872.34
2018-06-11T04:14:46.171Z,97875.80
2018-06-11T04:16:58.545Z,97873.36
2018-06-11T04:19:11.038Z,97868.64
2018-06-11T04:21:23.390Z,97866.22
2018-06-11T04:23:35.840Z,97868.56
2018-06-11T04:25:48.327Z,97872.09
2018-06-11T04:28:00.714Z,97869.17
2018-06-11T04:30:14.088Z,97876.66
2018-06-11T04:32:26.451Z,97882.87
2018-06-11T04:34:39.019Z,97879.64
2018-06-11T04:36:51.402Z,97879.16
2018-06-11T04:39:05.332Z,97873.58
2018-06-11T04:41:17.691Z,97871.45
2018-06-11T04:43:30.259Z,97872.77
2018-06-11T04:45:42.639Z,97861.89
2018-06-11T04:47:55.031Z,97861.56
2018-06-11T04:50:07.611Z,97862.56
2018-06-11T04:52:19.970Z,97864.20
2018-06-11T04:54:32.650Z,97861.75
2018-06-11T04:56:45.051Z,97867.39
2018-06-11T04:58:57.386Z,97861.66
2018-06-11T05:01:09.812Z,97852.74
2018-06-11T05:03:22.202Z,97853.09
2018-06-11T05:05:34.623Z,97852.45
2018-06-11T05:07:47.031Z,97848.48
2018-06-11T05:09:59.455Z,97841.72
2018-06-11T05:12:11.855Z,97838.08
2018-06-11T05:14:24.339Z,97828.86
2018-06-11T05:16:36.755Z,97825.54
2018-06-11T05:18:49.171Z,97826.04
2018-06-11T05:21:01.700Z,97827.02
2018-06-11T05:23:14.123Z,97825.84
2018-06-11T05:25:26.566Z,97829.10
2018-06-11T05:27:39.018Z,97821.01
2018-06-11T05:29:51.358Z,97820.30
2018-06-11T05:32:03.929Z,97822.73
2018-06-11T05:34:16.478Z,97814.74
2018-06-11T05:36:28.878Z,97817.88
2018-06-11T05:38:41.262Z,97817.39
2018-06-11T05:40:53.590Z,97812.94
2018-06-11T05:43:06.098Z,97815.54
2018-06-11T05:45:18.453Z,97820.09
2018-06-11T05:47:30.859Z,97816.01
2018-06-11T05:49:43.306Z,97821.23
2018-06-11T05:51:55.727Z,97826.14
2018-06-11T05:54:08.302Z,97831.02
2018-06-11T05:56:20.682Z,97841.02
2018-06-11T05:58:33.170Z,97834.75
2018-06-11T06:00:45.562Z,97846.27
2018-06-11T06:02:57.996Z,97851.68
2018-06-11T06:05:10.423Z,97849.42
2018-06-11T06:07:22.797Z,97849.00
2018-06-11T06:09:35.226Z,97847.79
2018-06-11T06:11:47.616Z,97842.63
2018-06-11T06:13:59.997Z,97840.39
2018-06-11T06:16:12.487Z,97846.92
2018-06-11T06:18:24.875Z,97847.52
2018-06-11T06:20:37.339Z,97851.39
2018-06-11T06:22:49.975Z,97848.16
2018-06-11T06:25:02.390Z,97848.56
2018-06-11T06:27:14.848Z,97851.70
2018-06-11T06:29:27.274Z,97853.63
2018-06-11T06:31:39.806Z,97857.75
2018-06-11T06:33:52.215Z,97855.94
2018-06-11T06:36:04.758Z,97864.30
2018-06-11T06:38:17.163Z,97868.80
2018-06-11T06:40:29.594Z,97870.59
2018-06-11T06:42:41.942Z,97870.05
2018-06-11T06:44:54.326Z,97867.17
2018-06-11T06:47:06.762Z,97862.46
2018-06-11T06:49:19.173Z,97868.11
2018-06-11T06:51:31.618Z,97865.56
2018-06-11T06:53:44.086Z,97865.78
2018-06-11T06:55:56.495Z,97861.66
2018-06-11T06:58:08.965Z,97857.88
2018-06-11T07:00:21.572Z,97858.34
2018-06-11T07:02:33.946Z,97863.22
2018-06-11T07:04:46.350Z,97878.83
2018-06-11T07:06:58.816Z,97883.98
2018-06-11T07:09:11.197Z,97898.02
2018-06-11T07:11:23.617Z,97889.19
2018-06-11T07:13:36.001Z,97879.39
2018-06-11T07:15:48.426Z,97875.41
2018-06-11T07:18:00.910Z,97879.91
2018-06-11T07:20:13.376Z,97871.38
2018-06-11T07:22:25.746Z,97865.65
2018-06-11T07:24:38.360Z,97866.86
2018-06-11T07:26:50.834Z,97862.27
2018-06-11T07:29:03.335Z,97857.34
2018-06-11T07:31:15.912Z,97855.33
2018-06-11T07:33:28.255Z,97858.87
2018-06-11T07:35:40.675Z,97856.27
2018-06-11T07:37:53.199Z,97857.84
2018-06-11T07:40:05.604Z,97858.13
2018-06-11T07:42:17.962Z,97849.00
2018-06-11T07:44:30.412Z,97849.14
2018-06-11T07:46:42.899Z,97850.46
2018-06-11T07:48:55.947Z,97846.72
2018-06-11T07:51:08.327Z,97840.22
2018-06-11T07:53:20.817Z,97842.13
2018-06-11T07:55:33.192Z,97834.46
2018-06-11T07:57:45.699Z,97830.98
2018-06-11T07:59:58.195Z,97833.44
2018-06-11T08:02:10.556Z,97830.61
2018-06-11T08:04:23.071Z,97833.84
2018-06-11T08:06:35.495Z,97832.83
2018-06-11T08:08:47.976Z,97834.77
2018-06-11T08:11:00.427Z,97830.11
2018-06-11T08:13:12.817Z,97830.03
2018-06-11T08:15:25.341Z,97820.50
2018-06-11T08:17:37.760Z,97819.41
2018-06-11T08:19:50.172Z,97814.73
2018-06-11T08:22:02.667Z,97813.95
2018-06-11T08:24:15.052Z,97813.73
2018-06-11T08:26:27.741Z,97813.48
2018-06-11T08:28:40.315Z,97813.53
2018-06-11T08:30:52.766Z,97814.66
2018-06-11T08:33:05.335Z,97816.72
2018-06-11T08:35:17.732Z,97818.18
2018-06-11T08:37:30.189Z,97816.77
2018-06-11T08:39:42.596Z,97819.52
2018-06-11T08:41:54.958Z,97820.63
2018-06-11T08:44:07.362Z,97815.06
2018-06-11T08:46:19.726Z,97814.95
2018-06-11T08:48:32.114Z,97825.84
2018-06-11T08:50:44.739Z,97816.58
2018-06-11T08:52:57.154Z,97817.76
2018-06-11T08:55:09.532Z,97816.41
2018-06-11T08:57:22.062Z,97822.00
2018-06-11T08:59:34.554Z,97810.05
2018-06-11T09:01:47.054Z,97812.86
2018-06-11T09:03:59.554Z,97810.00
2018-06-11T09:06:12.099Z,97814.73
2018-06-11T09:08:24.526Z,97811.66
2018-06-11T09:10:37.013Z,97812.80
2018-06-11T09:12:49.569Z,97816.41
2018-06-11T09:15:01.999Z,97807.31
2018-06-11T09:17:14.399Z,97809.47
2018-06-11T09:19:26.810Z,97812.45
2018-06-11T09:21:39.473Z,97808.67
2018-06-11T09:23:52.067Z,97819.47
2018-06-11T09:26:04.558Z,97818.14
2018-06-11T09:28:16.982Z,97817.10
2018-06-11T09:30:29.367Z,97819.88
2018-06-11T09:32:41.848Z,97814.88
2018-06-11T09:34:54.437Z,97815.95
2018-06-11T09:37:07.021Z,97811.66
2018-06-11T09:39:19.633Z,97811.01
2018-06-11T09:41:32.579Z,97808.08
2018-06-11T09:43:45.063Z,97807.19
2018-06-11T09:45:57.609Z,97814.16
2018-06-11T09:48:10.018Z,97811.63
2018-06-11T09:50:22.430Z,97816.38
2018-06-11T09:52:34.779Z,97812.41
2018-06-11T09:54:47.223Z,97811.41
2018-06-11T09:56:59.632Z,97810.45
2018-06-11T09:59:12.063Z,97805.95
2018-06-11T10:01:24.398Z,97809.95
2018-06-11T10:03:36.971Z,97804.91
2018-06-11T10:05:49.377Z,97806.97
2018-06-11T10:08:01.773Z,97813.52
2018-06-11T10:10:15.194Z,97810.73
2018-06-11T10:12:27.637Z,97804.92
2018-06-11T10:14:40.025Z,97806.55
2018-06-11T10:16:52.403Z,97803.77
2018-06-11T10:19:05.164Z,97793.64
2018-06-11T10:21:17.655Z,97795.59
2018-06-11T10:23:30.117Z,97795.69
2018-06-11T10:25:42.497Z,97787.19
2018-06-11T10:27:57.033Z,97789.34
2018-06-11T10:30:11.040Z,97788.13
2018-06-11T10:32:23.428Z,97785.27
2018-06-11T10:34:35.774Z,97779.23
2018-06-11T10:36:48.201Z,97777.31
2018-06-11T10:39:00.573Z,97778.28
2018-06-11T10:41:12.929Z,97779.12
2018-06-11T10:43:25.306Z,97766.45
2018-06-11T10:45:37.786Z,97753.34
2018-06-11T10:47:50.126Z,97749.77
2018-06-11T10:50:02.576Z,97741.75
2018-06-11T10:52:15.000Z,97746.98
2018-06-11T10:54:27.326Z,97745.68
2018-06-11T10:56:39.754Z,97745.37
2018-06-11T10:58:52.242Z,97732.64
2018-06-11T11:01:04.729Z,97719.02
2018-06-11T11:03:17.161Z,97716.45
2018-06-11T11:05:29.586Z,97722.34
2018-06-11T11:07:42.007Z,97716.55
2018-06-11T11:09:54.406Z,97710.50
2018-06-11T11:12:06.786Z,97708.27
2018-06-11T11:14:21.801Z,97706.80
2018-06-11T11:16:34.330Z,97705.58
2018-06-11T11:18:46.739Z,97696.09
2018-06-11T11:20:59.280Z,97713.09
2018-06-11T11:23:11.731Z,97715.07
2018-06-11T11:25:24.210Z,97716.56
2018-06-11T11:27:36.590Z,97703.14
2018-06-11T11:29:48.911Z,97712.78
2018-06-11T11:32:01.352Z,97705.48
2018-06-11T11:34:13.949Z,97711.65
2018-06-11T11:36:26.410Z,97700.08
2018-06-11T11:38:38.794Z,97704.16
2018-06-11T11:40:51.492Z,97701.98
2018-06-11T11:43:03.972Z,97704.77
2018-06-11T11:45:16.334Z,97694.09
2018-06-11T11:47:28.666Z,97699.22
2018-06-11T11:49:41.109Z,97707.86
2018-06-11T11:51:53.546Z,97706.92
2018-06-11T11:54:06.758Z,97713.27
2018-06-11T11:56:19.182Z,97712.77
2018-06-11T11:58:31.636Z,97713.95
2018-06-11T12:00:44.046Z,97709.30
2018-06-11T12:02:56.499Z,97705.19
2018-06-11T12:05:08.896Z,97699.95
2018-06-11T12:07:21.305Z,97692.14
2018-06-11T12:09:33.878Z,97692.27
2018-06-11T12:11:47.067Z,97679.78
2018-06-11T12:13:59.450Z,97677.11
2018-06-11T12:16:11.822Z,97662.20
2018-06-11T12:18:24.185Z,97662.73
2018-06-11T12:20:36.750Z,97666.84
2018-06-11T12:22:49.252Z,97662.41
2018-06-11T12:25:01.677Z,97660.41
2018-06-11T12:27:14.120Z,97660.35
2018-06-11T12:29:26.548Z,97660.67
2018-06-11T12:31:38.929Z,97663.10
2018-06-11T12:33:51.278Z,97657.08
2018-06-11T12:36:03.968Z,97655.15
2018-06-11T12:38:16.371Z,97643.05
2018-06-11T12:40:28.771Z,97643.50
2018-06-11T12:42:41.162Z,97633.91
2018-06-11T12:44:53.576Z,97623.73
2018-06-11T12:47:06.151Z,97609.84
2018-06-11T12:49:18.622Z,97605.22
2018-06-11T12:51:31.634Z,97597.28
2018-06-11T12:53:44.060Z,97592.42
2018-06-11T12:55:56.513Z,97586.09
2018-06-11T12:58:08.989Z,97592.05
2018-06-11T13:00:21.466Z,97592.78
2018-06-11T13:02:33.897Z,97594.31
2018-06-11T13:04:46.269Z,97592.70
2018-06-11T13:06:58.811Z,97588.30
2018-06-11T13:09:11.194Z,97585.72
2018-06-11T13:11:23.795Z,97585.41
2018-06-11T13:13:36.186Z,97584.06
2018-06-11T13:15:48.543Z,97577.46
2018-06-11T13:18:00.902Z,97578.27
2018-06-11T13:20:13.243Z,97569.81
2018-06-11T13:22:25.668Z,97567.42
2018-06-11T13:24:38.199Z,97567.53
2018-06-11T13:26:50.570Z,97560.16
2018-06-11T13:29:03.110Z,97553.92
2018-06-11T13:31:15.452Z,97553.87
2018-06-11T13:33:27.920Z,97556.23
2018-06-11T13:35:40.316Z,97555.81
2018-06-11T13:37:52.757Z,97566.10
2018-06-11T13:40:05.169Z,97559.94
2018-06-11T13:42:17.519Z,97567.64
2018-06-11T13:44:29.982Z,97571.08
2018-06-11T13:46:42.385Z,97561.68
2018-06-11T13:48:54.845Z,97560.55
2018-06-11T13:51:07.383Z,97553.11
2018-06-11T13:53:19.738Z,97552.30
2018-06-11T13:55:32.142Z,97556.70
2018-06-11T13:57:44.577Z,97550.35
2018-06-11T13:59:57.095Z,97546.94
2018-06-11T14:02:09.605Z,97540.05
2018-06-11T14:04:21.991Z,97534.84
2018-06-11T14:06:34.338Z,97529.05
2018-06-11T14:08:46.726Z,97517.26
2018-06-11T14:10:59.187Z,97513.98
2018-06-11T14:13:11.543Z,97506.81
2018-06-11T14:15:23.923Z,97502.57
2018-06-11T14:17:36.300Z,97496.25
2018-06-11T14:19:48.660Z,97490.47
2018-06-11T14:22:00.994Z,97491.28
2018-06-11T14:24:13.361Z,97492.56
2018-06-11T14:26:26.295Z,97496.40
2018-06-11T14:28:38.759Z,97498.26
2018-06-11T14:30:51.097Z,97496.03
2018-06-11T14:33:03.527Z,97499.22
2018-06-11T14:35:15.893Z,97495.66
2018-06-11T14:37:28.396Z,97502.04
2018-06-11T14:39:40.770Z,97504.72
2018-06-11T14:41:53.151Z,97501.95
2018-06-11T14:44:05.483Z,97494.30
2018-06-11T14:46:17.903Z,97503.13
2018-06-11T14:48:30.571Z,97503.19
2018-06-11T14:50:42.935Z,97502.52
2018-06-11T14:52:55.322Z,97499.16
2018-06-11T14:55:07.702Z,97497.30
2018-06-11T14:57:20.117Z,97492.07
2018-06-11T14:59:32.526Z,97494.27
2018-06-11T15:01:44.859Z,97497.07
2018-06-11T15:03:57.228Z,97489.89
2018-06-11T15:06:09.590Z,97482.08
2018-06-11T15:08:21.975Z,97478.16
2018-06-11T15:10:34.339Z,97481.33
2018-06-11T15:12:46.745Z,97484.09
2018-06-11T15:15:00.080Z,97488.75
2018-06-11T15:17:12.514Z,97503.25
2018-06-11T15:19:24.922Z,97506.50
2018-06-11T15:21:37.376Z,97509.35
2018-06-11T15:23:49.725Z,97509.48
2018-06-11T15:26:02.097Z,97506.13
2018-06-11T15:28:14.433Z,97506.56
2018-06-11T15:30:26.842Z,97499.23
2018-06-11T15:32:39.220Z,97489.42
2018-06-11T15:34:51.605Z,97477.44
2018-06-11T15:37:04.035Z,97485.78
2018-06-11T15:39:16.446Z,97485.78
2018-06-11T15:41:28.910Z,97490.30
2018-06-11T15:43:41.258Z,97494.94
2018-06-11T15:45:53.645Z,97498.94
2018-06-11T15:48:06.007Z,97493.65
2018-06-11T15:50:18.530Z,97485.16
2018-06-11T15:52:30.920Z,97475.03
2018-06-11T15:54:43.297Z,97473.89
2018-06-11T15:56:55.764Z,97469.89
2018-06-11T15:59:08.135Z,97478.50
2018-06-11T16:01:20.622Z,97479.20
2018-06-11T16:03:32.986Z,97476.25
2018-06-11T16:05:45.346Z,97472.56
2018-06-11T16:07:57.693Z,97475.22
2018-06-11T16:10:10.191Z,97497.19
2018-06-11T16:12:22.557Z,97518.55
2018-06-11T16:14:34.940Z,97548.08
2018-06-11T16:16:47.522Z,97562.83
2018-06-11T16:19:00.035Z,97566.14
2018-06-11T16:21:12.659Z,97582.29
2018-06-11T16:23:25.210Z,97581.20
2018-06-11T16:25:38.116Z,97580.84
2018-06-11T16:27:53.000Z,97551.50
2018-06-11T16:30:05.471Z,97557.71
2018-06-11T16:32:18.919Z,97573.04
2018-06-11T16:34:32.254Z,97561.14
2018-06-11T16:36:45.510Z,97570.59
2018-06-11T16:38:57.929Z,97595.49
2018-06-11T16:41:10.402Z,97625.00
2018-06-11T16:43:22.944Z,97633.66
2018-06-11T16:45:35.322Z,97635.54
2018-06-11T16:47:48.807Z,97650.70
2018-06-11T16:50:01.189Z,97653.54
2018-06-11T16:52:13.585Z,97655.91
2018-06-11T16:54:25.975Z,97654.28
2018-06-11T16:56:38.367Z,97657.44
2018-06-11T16:58:53.814Z,97656.03
2018-06-11T17:01:06.965Z,97672.75
2018-06-11T17:03:19.371Z,97673.30
2018-06-11T17:05:31.805Z,97684.91
2018-06-11T17:07:44.223Z,97692.84
2018-06-11T17:09:56.635Z,97696.65
2018-06-11T17:12:09.156Z,97704.27
2018-06-11T17:14:22.178Z,97709.55
2018-06-11T17:16:35.078Z,97713.14
2018-06-11T17:18:47.478Z,97720.09
2018-06-11T17:20:59.958Z,97722.58
2018-06-11T17:23:12.342Z,97724.45
2018-06-11T17:25:24.746Z,97723.85
2018-06-11T17:27:37.179Z,97731.59
2018-06-11T17:29:49.522Z,97734.79
2018-06-11T17:32:02.146Z,97739.09
2018-06-11T17:34:14.600Z,97743.71
2018-06-11T17:36:27.279Z,97742.12
2018-06-11T17:38:39.763Z,97737.80
2018-06-11T17:40:52.181Z,97732.55
2018-06-11T17:43:04.552Z,97732.20
2018-06-11T17:45:16.987Z,97717.03
2018-06-11T17:47:29.443Z,97718.72
2018-06-11T17:49:41.845Z,97722.82
2018-06-11T17:51:54.242Z,97722.80
2018-06-11T17:54:06.630Z,97722.34
2018-06-11T17:56:19.071Z,97728.27
2018-06-11T17:58:31.594Z,97725.65
2018-06-11T18:00:43.964Z,97731.27
2018-06-11T18:02:56.330Z,97735.88
2018-06-11T18:05:08.766Z,97735.20
2018-06-11T18:07:21.219Z,97732.88
2018-06-11T18:09:33.614Z,97735.73
2018-06-11T18:11:46.010Z,97732.42
2018-06-11T18:13:58.401Z,97736.91
2018-06-11T18:16:10.797Z,97737.74
2018-06-11T18:18:23.171Z,97742.86
2018-06-11T18:20:35.620Z,97734.59
2018-06-11T18:22:48.001Z,97743.17
2018-06-11T18:25:00.394Z,97741.37
2018-06-11T18:27:12.834Z,97755.22
2018-06-11T18:29:25.193Z,97753.73
2018-06-11T18:31:37.654Z,97755.56
2018-06-11T18:33:50.018Z,97755.06
2018-06-11T18:36:02.570Z,97751.58
2018-06-11T18:38:14.979Z,97749.45
2018-06-11T18:40:27.383Z,97748.80
2018-06-11T18:42:39.874Z,97745.52
2018-06-11T18:44:52.218Z,97742.05
2018-06-11T18:47:04.804Z,97734.95
2018-06-11T18:49:17.477Z,97729.37
2018-06-11T18:51:29.868Z,97733.98
2018-06-11T18:53:42.334Z,97726.55
2018-06-11T18:55:54.761Z,97721.75
2018-06-11T18:58:07.454Z,97721.61
2018-06-11T19:00:19.811Z,97723.57
2018-06-11T19:02:32.213Z,97716.16
2018-06-11T19:04:44.722Z,97713.70
2018-06-11T19:06:57.109Z,97714.33
2018-06-11T19:09:09.531Z,97718.80
2018-06-11T19:11:21.930Z,97721.13
2018-06-11T19:13:34.361Z,97713.55
2018-06-11T19:15:46.812Z,97716.34
2018-06-11T19:17:59.199Z,97713.22
2018-06-11T19:20:11.644Z,97722.80
2018-06-11T19:22:24.179Z,97726.09
2018-06-11T19:24:36.687Z,97730.38
2018-06-11T19:26:49.068Z,97728.41
2018-06-11T19:29:01.526Z,97730.37
2018-06-11T19:31:13.953Z,97723.61
2018-06-11T19:33:26.349Z,97728.08
2018-06-11T19:35:38.816Z,97732.22
2018-06-11T19:37:51.161Z,97730.72
2018-06-11T19:40:03.562Z,97724.61
2018-06-11T19:42:15.985Z,97720.84
2018-06-11T19:44:28.297Z,97735.00
2018-06-11T19:46:40.771Z,97735.68
2018-06-11T19:48:53.181Z,97750.84
2018-06-11T19:51:05.606Z,97759.77
2018-06-11T19:53:17.943Z,97760.58
2018-06-11T19:55:30.531Z,97768.98
2018-06-11T19:57:42.902Z,97759.41
2018-06-11T19:59:55.377Z,97762.39
2018-06-11T20:02:07.753Z,97766.98
2018-06-11T20:04:20.449Z,97767.80
2018-06-11T20:06:32.806Z,97767.98
2018-06-11T20:08:45.209Z,97765.52
2018-06-11T20:10:57.621Z,97771.47
2018-06-11T20:13:10.241Z,97770.97
2018-06-11T20:15:22.635Z,97759.43
2018-06-11T20:17:35.054Z,97753.45
2018-06-11T20:19:47.454Z,97761.69
2018-06-11T20:21:59.866Z,97757.91
2018-06-11T20:24:12.251Z,97755.42
2018-06-11T20:26:24.675Z,97764.00
2018-06-11T20:28:37.114Z,97764.00
2018-06-11T20:30:49.544Z,97759.55
2018-06-11T20:33:02.043Z,97758.55
2018-06-11T20:35:14.459Z,97764.65
2018-06-11T20:37:26.862Z,97761.87
2018-06-11T20:39:39.338Z,97758.41
2018-06-11T20:41:51.728Z,97763.72
2018-06-11T20:44:04.178Z,97766.35
2018-06-11T20:46:16.554Z,97764.33
2018-06-11T20:48:28.963Z,97761.52
2018-06-11T20:50:41.590Z,97758.05
2018-06-11T20:52:53.974Z,97754.27
2018-06-11T20:55:06.443Z,97756.09
2018-06-11T20:57:18.859Z,97752.46
2018-06-11T20:59:31.278Z,97750.64
2018-06-11T21:01:43.678Z,97760.87
2018-06-11T21:03:56.045Z,97753.78
2018-06-11T21:06:08.402Z,97751.46
2018-06-11T21:08:20.778Z,97746.36
2018-06-11T21:10:33.243Z,97745.37
2018-06-11T21:12:45.626Z,97748.83
2018-06-11T21:14:58.020Z,97743.55
2018-06-11T21:17:10.626Z,97741.91
2018-06-11T21:19:22.954Z,97730.05
2018-06-11T21:21:35.357Z,97724.63
2018-06-11T21:23:47.837Z,97730.05
2018-06-11T21:26:00.346Z,97731.19
2018-06-11T21:28:12.729Z,97731.54
2018-06-11T21:30:25.156Z,97731.54
2018-06-11T21:32:37.599Z,97729.75
2018-06-11T21:34:49.921Z,97730.75
2018-06-11T21:37:02.336Z,97726.79
2018-06-11T21:39:14.815Z,97722.98
2018-06-11T21:41:27.164Z,97731.23
2018-06-11T21:43:39.574Z,97732.70
2018-06-11T21:45:51.989Z,97739.98
2018-06-11T21:48:04.371Z,97748.39
2018-06-11T21:50:16.757Z,97746.25
2018-06-11T21:52:29.180Z,97743.61
2018-06-11T21:54:41.582Z,97737.34
2018-06-11T21:56:54.228Z,97731.74
2018-06-11T21:59:06.648Z,97731.24
2018-06-11T22:01:19.166Z,97736.34
2018-06-11T22:03:31.721Z,97738.16
2018-06-11T22:05:44.057Z,97738.66
2018-06-11T22:07:56.490Z,97744.58
2018-06-11T22:10:08.875Z,97746.39
2018-06-11T22:12:21.372Z,97739.80
2018-06-11T22:14:33.810Z,97736.02
2018-06-11T22:16:46.207Z,97733.06
2018-06-11T22:18:58.752Z,97727.78
2018-06-11T22:21:11.191Z,97728.10
2018-06-11T22:23:23.630Z,97726.30
2018-06-11T22:25:35.939Z,97728.61
2018-06-11T22:27:48.253Z,97728.25
2018-06-11T22:30:00.794Z,97727.79
2018-06-11T22:32:13.146Z,97722.02
2018-06-11T22:34:25.480Z,97731.24
2018-06-11T22:36:37.909Z,97729.43
2018-06-11T22:38:50.443Z,97730.55
2018-06-11T22:41:02.834Z,97727.59
2018-06-11T22:43:15.196Z,97725.77
2018-06-11T22:45:27.610Z,97732.36
2018-06-11T22:47:39.970Z,97733.67
2018-06-11T22:49:52.378Z,97731.86
2018-06-11T22:52:04.724Z,97730.70
2018-06-11T22:54:17.041Z,97736.47
2018-06-11T22:56:29.387Z,97733.83
2018-06-11T22:58:41.742Z,97732.51
2018-06-11T23:00:54.117Z,97735.33
2018-06-11T23:03:06.611Z,97736.14
2018-06-11T23:05:18.945Z,97738.95
2018-06-11T23:07:31.250Z,97740.09
2018-06-11T23:09:43.674Z,97741.73
2018-06-11T23:11:56.074Z,97730.37
2018-06-11T23:14:08.451Z,97724.92
2018-06-11T23:16:20.795Z,97728.55
2018-06-11T23:18:33.146Z,97722.44
2018-06-11T23:20:45.553Z,97719.47
2018-06-11T23:22:57.990Z,97723.60
2018-06-11T23:25:10.290Z,97715.70
2018-06-11T23:27:22.718Z,97720.47
2018-06-11T23:29:35.099Z,97723.92
2018-06-11T23:31:47.202Z,97722.11
2018-06-11T23:33:59.562Z,97719.47
2018-06-11T23:36:11.935Z,97725.07
2018-06-11T23:38:24.286Z,97730.70
2018-06-11T23:40:36.631Z,97736.78
2018-06-11T23:42:48.946Z,97727.73
2018-06-11T23:45:01.418Z,97728.88
2018-06-11T23:47:13.766Z,97747.16
2018-06-11T23:49:26.124Z,97743.20
2018-06-11T23:51:38.458Z,97750.29
2018-06-11T23:53:50.814Z,97744.70
2018-06-11T23:56:03.154Z,97751.10
2018-06-11T23:58:15.515Z,97747.16
